Time;durP1;ratioP1;P1;durP2;ratioP2;P2;SDS_P1;SDS_P2;PMS_P1;PMS_P2;Temp;Humidity;BMP_temperature;BMP_pressure;BME280_temperature;BME280_humidity;BME280_pressure;Samples;Min_cycle;Max_cycle;Signal;HPM_P1;HPM_P2
2023/11/19 00:00:47;;;;;;;1.10;1.10;;;6.40;99.90;;;;;;4984116;28;20035;-75
2023/11/19 00:03:21;;;;;;;1.27;1.23;;;6.40;99.90;;;;;;4967959;28;20026;-77
2023/11/19 00:05:46;;;;;;;2.67;1.33;;;6.50;99.90;;;;;;4970236;28;20039;-76
2023/11/19 00:08:13;;;;;;;1.95;1.65;;;6.50;99.90;;;;;;4987494;28;20601;-77
2023/11/19 00:10:41;;;;;;;1.33;1.23;;;6.50;99.90;;;;;;4986631;28;20117;-75
2023/11/19 00:13:07;;;;;;;1.75;1.42;;;6.50;99.90;;;;;;4983710;28;20050;-77
2023/11/19 00:15:33;;;;;;;2.10;1.90;;;6.60;99.90;;;;;;4985864;28;20017;-76
2023/11/19 00:17:59;;;;;;;1.73;1.63;;;6.60;99.90;;;;;;4966340;28;20070;-76
2023/11/19 00:20:25;;;;;;;1.50;1.40;;;6.60;99.90;;;;;;4983692;28;20424;-75
2023/11/19 00:22:51;;;;;;;1.60;1.48;;;6.60;99.90;;;;;;4986201;28;20054;-76
2023/11/19 00:25:18;;;;;;;1.30;1.20;;;6.60;99.90;;;;;;4987467;28;20035;-76
2023/11/19 00:27:46;;;;;;;1.58;1.27;;;6.70;99.90;;;;;;4984330;28;20028;-76
2023/11/19 00:30:15;;;;;;;;;;;6.60;99.90;;;;;;4967455;28;20026;-76
2023/11/19 00:32:41;;;;;;;;;;;6.70;99.90;;;;;;4965278;28;19927;-76
2023/11/19 00:35:10;;;;;;;1.10;1.05;;;6.70;99.90;;;;;;4985322;28;19910;-77
2023/11/19 00:37:36;;;;;;;1.52;1.10;;;6.70;99.90;;;;;;4968136;28;20095;-76
2023/11/19 00:40:05;;;;;;;1.70;1.50;;;6.70;99.90;;;;;;4982091;28;20058;-77
2023/11/19 00:42:31;;;;;;;3.20;1.38;;;6.70;99.90;;;;;;4970586;28;20022;-75
2023/11/19 00:44:57;;;;;;;1.50;1.40;;;6.70;99.90;;;;;;4968740;28;20054;-76
2023/11/19 00:47:23;;;;;;;1.40;1.30;;;6.80;99.90;;;;;;4982342;28;20229;-75
2023/11/19 00:49:50;;;;;;;1.67;1.58;;;6.80;99.90;;;;;;4982767;28;20019;-75
2023/11/19 00:52:18;;;;;;;2.35;1.55;;;6.80;99.90;;;;;;4967387;28;20094;-76
2023/11/19 00:54:44;;;;;;;3.88;1.70;;;6.80;99.90;;;;;;4984757;28;20023;-75
2023/11/19 00:57:10;;;;;;;1.55;1.45;;;6.80;99.90;;;;;;4984991;28;20090;-77
2023/11/19 00:59:36;;;;;;;1.50;1.27;;;6.80;99.90;;;;;;4985424;28;20047;-78
2023/11/19 01:02:03;;;;;;;8.70;1.63;;;6.80;99.90;;;;;;4982553;28;20046;-76
2023/11/19 01:04:33;;;;;;;1.15;1.13;;;6.90;99.90;;;;;;4989718;28;20026;-76
2023/11/19 01:06:59;;;;;;;4.50;1.02;;;6.90;99.90;;;;;;4985981;28;20074;-76
2023/11/19 01:09:26;;;;;;;1.10;1.10;;;7.00;99.90;;;;;;4985553;28;20027;-77
2023/11/19 01:11:53;;;;;;;1.25;1.15;;;7.00;99.90;;;;;;4970217;28;20026;-77
2023/11/19 01:14:19;;;;;;;1.45;1.23;;;7.00;99.90;;;;;;4967025;28;20416;-76
2023/11/19 01:16:47;;;;;;;1.23;0.95;;;7.10;99.90;;;;;;4950486;29;20027;-78
2023/11/19 01:19:13;;;;;;;1.10;1.10;;;7.10;99.90;;;;;;4949876;28;20055;-76
2023/11/19 01:21:39;;;;;;;1.30;1.20;;;7.10;99.90;;;;;;4948103;29;20067;-76
2023/11/19 01:24:09;;;;;;;1.80;1.08;;;7.20;99.90;;;;;;4950072;29;20032;-76
2023/11/19 01:26:34;;;;;;;1.20;1.10;;;7.20;99.90;;;;;;4962971;28;20039;-76
2023/11/19 01:29:01;;;;;;;1.30;1.20;;;7.20;99.90;;;;;;4945809;29;20118;-78
2023/11/19 01:31:26;;;;;;;1.40;1.30;;;7.30;99.90;;;;;;4962868;28;20117;-76
2023/11/19 01:33:52;;;;;;;1.35;1.25;;;7.30;99.90;;;;;;4945646;29;20063;-77
2023/11/19 01:36:18;;;;;;;1.27;0.82;;;7.30;99.90;;;;;;4945819;28;20031;-76
2023/11/19 01:38:44;;;;;;;1.55;1.45;;;7.30;99.90;;;;;;4968181;28;20038;-75
2023/11/19 01:41:10;;;;;;;0.98;0.98;;;7.40;99.90;;;;;;4949012;29;20023;-77
2023/11/19 01:43:42;;;;;;;1.10;1.00;;;7.40;99.90;;;;;;4965383;28;20023;-76
2023/11/19 01:46:11;;;;;;;1.90;1.10;;;7.50;99.90;;;;;;4969099;29;20217;-76
2023/11/19 01:48:43;;;;;;;1.98;1.20;;;7.50;99.90;;;;;;4964115;28;20091;-76
2023/11/19 01:51:10;;;;;;;1.40;1.30;;;7.60;99.90;;;;;;4968582;29;20027;-77
2023/11/19 01:53:40;;;;;;;1.10;1.10;;;7.50;99.90;;;;;;4965255;28;20035;-76
2023/11/19 01:56:13;;;;;;;1.25;1.15;;;7.60;99.90;;;;;;4967822;28;20049;-75
2023/11/19 01:58:40;;;;;;;1.40;1.30;;;7.60;99.90;;;;;;4964613;29;20099;-76
2023/11/19 02:01:07;;;;;;;1.45;1.35;;;7.70;99.90;;;;;;4952527;29;20039;-76
2023/11/19 02:03:36;;;;;;;1.55;1.33;;;7.70;99.90;;;;;;4950915;29;20039;-77
2023/11/19 02:06:02;;;;;;;1.20;1.10;;;7.70;99.90;;;;;;4968560;29;20031;-77
2023/11/19 02:08:35;;;;;;;1.50;1.38;;;7.70;99.90;;;;;;4964205;28;20534;-76
2023/11/19 02:11:01;;;;;;;1.15;1.10;;;7.70;99.90;;;;;;4968202;29;20035;-76
2023/11/19 02:13:28;;;;;;;1.05;1.05;;;7.70;99.90;;;;;;4982162;28;20031;-76
2023/11/19 02:16:09;;;;;;;1.30;1.20;;;7.80;99.90;;;;;;4994735;28;20007;-76
2023/11/19 02:19:13;;;;;;;1.48;1.38;;;7.80;99.90;;;;;;4976302;28;20037;-76
2023/11/19 02:21:42;;;;;;;1.20;1.20;;;7.80;99.90;;;;;;4994350;28;20037;-77
2023/11/19 02:24:12;;;;;;;1.48;1.30;;;7.90;99.90;;;;;;4965229;28;20026;-76
2023/11/19 02:26:51;;;;;;;1.77;1.67;;;7.90;99.90;;;;;;4962319;28;20035;-75
2023/11/19 02:29:17;;;;;;;1.13;1.13;;;7.80;99.90;;;;;;4964803;28;20042;-76
2023/11/19 02:31:49;;;;;;;1.40;1.30;;;7.90;99.90;;;;;;4979853;28;20042;-75
2023/11/19 02:34:16;;;;;;;2.00;1.52;;;7.90;99.90;;;;;;4982964;28;20397;-76
2023/11/19 02:36:50;;;;;;;1.15;1.15;;;7.90;99.90;;;;;;4978494;28;20027;-75
2023/11/19 02:39:21;;;;;;;1.60;1.50;;;7.90;99.90;;;;;;4979382;28;20027;-74
2023/11/19 02:42:02;;;;;;;2.08;1.45;;;7.90;99.90;;;;;;4979921;28;21096;-75
2023/11/19 02:44:41;;;;;;;1.58;1.45;;;7.90;99.90;;;;;;4981764;28;20113;-74
2023/11/19 02:47:08;;;;;;;1.33;1.23;;;7.90;99.90;;;;;;4982668;28;20034;-76
2023/11/19 02:49:37;;;;;;;1.58;1.48;;;8.00;99.90;;;;;;4976300;28;20019;-75
2023/11/19 02:52:05;;;;;;;2.55;1.52;;;8.00;99.90;;;;;;4975910;28;20480;-75
2023/11/19 02:54:43;;;;;;;1.65;1.55;;;8.00;99.90;;;;;;4963538;28;20123;-75
2023/11/19 02:57:19;;;;;;;2.88;1.75;;;8.00;99.90;;;;;;4973991;28;20098;-75
2023/11/19 03:00:03;;;;;;;1.60;1.50;;;8.00;99.90;;;;;;4960797;28;20026;-76
2023/11/19 03:02:33;;;;;;;2.25;1.50;;;8.00;99.90;;;;;;4978481;28;20114;-75
2023/11/19 03:05:05;;;;;;;1.42;1.33;;;8.00;99.90;;;;;;4961382;28;20042;-75
2023/11/19 03:07:31;;;;;;;1.67;1.42;;;8.10;99.90;;;;;;4983804;28;20027;-76
2023/11/19 03:09:59;;;;;;;1.58;1.48;;;8.10;99.90;;;;;;4979452;28;20037;-75
2023/11/19 03:12:28;;;;;;;1.70;1.60;;;8.00;99.90;;;;;;4979812;28;20019;-76
2023/11/19 03:14:55;;;;;;;2.20;1.58;;;8.10;99.90;;;;;;4980186;28;20037;-76
2023/11/19 03:17:20;;;;;;;1.55;1.45;;;8.10;99.90;;;;;;4960617;28;20646;-75
2023/11/19 03:19:48;;;;;;;2.35;1.27;;;8.10;99.90;;;;;;4957645;28;20031;-75
2023/11/19 03:22:14;;;;;;;2.97;1.23;;;8.10;99.90;;;;;;4975895;28;20022;-75
2023/11/19 03:24:40;;;;;;;1.40;1.30;;;8.10;99.90;;;;;;4956624;28;20296;-76
2023/11/19 03:27:06;;;;;;;1.30;1.17;;;8.20;99.90;;;;;;4973032;28;20041;-77
2023/11/19 03:29:31;;;;;;;1.40;0.98;;;8.20;99.90;;;;;;4969795;28;20031;-76
2023/11/19 03:31:57;;;;;;;0.80;0.80;;;8.20;99.90;;;;;;4973644;28;20090;-74
2023/11/19 03:34:23;;;;;;;1.30;1.20;;;8.20;99.90;;;;;;4976466;28;20062;-76
2023/11/19 03:36:59;;;;;;;2.25;1.02;;;8.30;99.90;;;;;;4977732;28;20098;-77
2023/11/19 03:39:25;;;;;;;1.23;1.15;;;8.30;99.90;;;;;;4952520;28;20113;-77
2023/11/19 03:41:51;;;;;;;1.00;1.00;;;8.30;99.90;;;;;;4973284;28;20069;-77
2023/11/19 03:44:17;;;;;;;0.93;0.93;;;8.30;99.90;;;;;;4975660;28;20039;-76
2023/11/19 03:46:43;;;;;;;0.90;0.90;;;8.40;99.90;;;;;;4975868;28;20046;-76
2023/11/19 03:49:09;;;;;;;1.45;1.17;;;8.40;99.90;;;;;;4976347;28;20035;-76
2023/11/19 03:51:35;;;;;;;0.85;0.85;;;8.40;99.90;;;;;;4980140;28;20039;-76
2023/11/19 03:54:04;;;;;;;0.77;0.77;;;8.40;99.90;;;;;;4977307;28;20033;-75
2023/11/19 03:56:30;;;;;;;1.30;1.20;;;8.50;99.90;;;;;;4980767;28;20063;-76
2023/11/19 03:58:56;;;;;;;0.90;0.90;;;8.50;99.90;;;;;;4959389;28;20035;-77
2023/11/19 04:01:22;;;;;;;1.27;0.90;;;8.50;99.90;;;;;;4980208;28;20612;-76
2023/11/19 04:03:48;;;;;;;1.33;1.33;;;8.50;99.90;;;;;;4975511;28;20122;-77
2023/11/19 04:06:15;;;;;;;1.00;1.00;;;8.50;99.90;;;;;;4977301;28;20329;-76
2023/11/19 04:08:44;;;;;;;1.23;1.13;;;8.50;99.90;;;;;;4975271;28;20023;-76
2023/11/19 04:11:10;;;;;;;0.93;0.93;;;8.50;99.90;;;;;;4962789;28;20631;-76
2023/11/19 04:13:42;;;;;;;1.05;0.73;;;8.60;99.90;;;;;;4975621;28;20038;-76
2023/11/19 04:16:12;;;;;;;1.83;1.15;;;8.60;99.90;;;;;;4959058;28;20026;-75
2023/11/19 04:18:38;;;;;;;1.33;1.10;;;8.60;99.90;;;;;;4975712;28;20026;-76
2023/11/19 04:21:07;;;;;;;0.80;0.80;;;8.60;99.90;;;;;;4977924;28;20057;-76
2023/11/19 04:23:32;;;;;;;1.20;1.10;;;8.60;99.90;;;;;;4977076;28;20046;-75
2023/11/19 04:25:58;;;;;;;0.98;0.98;;;8.60;99.90;;;;;;4973243;28;20118;-75
2023/11/19 04:28:26;;;;;;;0.88;0.88;;;8.70;99.90;;;;;;4976519;28;20061;-75
2023/11/19 04:30:52;;;;;;;0.73;0.73;;;8.70;99.90;;;;;;4955458;28;20035;-75
2023/11/19 04:33:18;;;;;;;1.10;1.10;;;8.70;99.90;;;;;;4976921;28;20527;-76
2023/11/19 04:35:43;;;;;;;1.27;1.20;;;8.70;99.90;;;;;;4977031;28;20116;-76
2023/11/19 04:38:09;;;;;;;1.40;1.30;;;8.70;99.90;;;;;;4977923;28;20046;-75
2023/11/19 04:40:38;;;;;;;0.88;0.88;;;8.70;99.90;;;;;;4961215;28;20023;-76
2023/11/19 04:43:04;;;;;;;1.38;1.30;;;8.70;99.90;;;;;;4961854;28;20408;-77
2023/11/19 04:45:30;;;;;;;1.17;1.02;;;8.80;99.90;;;;;;4979941;28;20058;-76
2023/11/19 04:47:59;;;;;;;1.17;1.13;;;8.80;99.90;;;;;;4963795;28;20072;-76
2023/11/19 04:50:27;;;;;;;1.73;1.63;;;8.80;99.90;;;;;;4981192;28;20038;-76
2023/11/19 04:52:53;;;;;;;1.02;1.02;;;8.80;99.90;;;;;;4963411;28;20508;-76
2023/11/19 04:55:25;;;;;;;1.20;1.10;;;8.80;99.90;;;;;;4984439;28;20184;-76
2023/11/19 04:57:53;;;;;;;1.70;1.10;;;8.80;99.90;;;;;;4965947;28;20027;-76
2023/11/19 05:00:21;;;;;;;1.10;1.10;;;8.80;99.90;;;;;;4982021;28;20019;-76
2023/11/19 05:02:47;;;;;;;1.17;1.07;;;8.80;99.90;;;;;;4981341;28;20035;-76
2023/11/19 05:05:12;;;;;;;1.27;1.17;;;8.80;99.90;;;;;;4966683;28;20042;-76
2023/11/19 05:07:38;;;;;;;1.20;1.20;;;8.80;99.90;;;;;;4985542;28;20042;-76
2023/11/19 05:10:05;;;;;;;1.38;1.35;;;8.80;99.90;;;;;;4983542;28;20081;-76
2023/11/19 05:12:51;;;;;;;2.80;1.58;;;8.80;99.90;;;;;;4968607;28;20096;-76
2023/11/19 05:15:45;;;;;;;1.77;1.30;;;8.80;99.90;;;;;;4968402;28;20046;-76
2023/11/19 05:18:13;;;;;;;1.17;1.08;;;8.80;99.90;;;;;;4956968;28;20027;-76
2023/11/19 05:20:46;;;;;;;1.10;1.10;;;8.80;99.90;;;;;;4955438;29;20038;-76
2023/11/19 05:23:11;;;;;;;1.50;1.40;;;8.80;99.90;;;;;;4969800;28;20082;-76
2023/11/19 05:25:37;;;;;;;1.75;1.65;;;8.80;99.90;;;;;;4954058;28;20090;-76
2023/11/19 05:28:06;;;;;;;2.17;1.42;;;8.80;99.90;;;;;;4977514;28;20066;-75
2023/11/19 05:30:31;;;;;;;1.50;1.40;;;8.80;99.90;;;;;;4956308;28;20019;-76
2023/11/19 05:32:57;;;;;;;1.42;1.25;;;8.80;99.90;;;;;;4978149;28;20043;-76
2023/11/19 05:35:31;;;;;;;1.10;0.95;;;8.80;99.90;;;;;;4970211;29;20028;-77
2023/11/19 05:37:57;;;;;;;1.38;1.27;;;8.80;99.90;;;;;;4974759;28;20054;-76
2023/11/19 05:40:23;;;;;;;2.05;1.58;;;8.80;99.90;;;;;;4974692;28;20026;-76
2023/11/19 05:42:48;;;;;;;1.50;1.40;;;8.80;99.90;;;;;;4957501;28;20046;-76
2023/11/19 05:45:17;;;;;;;2.65;1.50;;;8.80;99.90;;;;;;4976511;28;20030;-76
2023/11/19 05:47:43;;;;;;;1.40;1.30;;;8.80;99.90;;;;;;4956516;28;20087;-76
2023/11/19 05:50:10;;;;;;;1.70;1.45;;;8.80;99.90;;;;;;4957959;28;20046;-75
2023/11/19 05:52:35;;;;;;;1.40;1.30;;;8.90;99.90;;;;;;4972303;28;20070;-75
2023/11/19 05:55:04;;;;;;;2.47;1.40;;;8.90;99.90;;;;;;4964250;28;20031;-76
2023/11/19 05:57:31;;;;;;;1.52;1.42;;;8.90;99.90;;;;;;4962524;28;20031;-76
2023/11/19 05:59:58;;;;;;;1.88;1.73;;;8.90;99.90;;;;;;4944692;29;20477;-77
2023/11/19 06:02:24;;;;;;;2.05;1.70;;;8.90;99.90;;;;;;4956798;28;20318;-76
2023/11/19 06:04:50;;;;;;;1.50;1.40;;;8.90;99.90;;;;;;4966933;28;20062;-76
2023/11/19 06:07:16;;;;;;;1.45;1.35;;;8.90;99.90;;;;;;4962354;28;20195;-77
2023/11/19 06:09:42;;;;;;;1.90;1.63;;;8.90;99.90;;;;;;4961442;28;20033;-76
2023/11/19 06:12:08;;;;;;;2.03;1.52;;;8.90;99.90;;;;;;4964464;28;20125;-77
2023/11/19 06:14:34;;;;;;;1.52;1.40;;;8.90;99.90;;;;;;4981166;28;20098;-77
2023/11/19 06:16:59;;;;;;;1.75;1.65;;;8.90;99.90;;;;;;4981520;28;20054;-75
2023/11/19 06:19:25;;;;;;;1.80;1.70;;;8.90;99.90;;;;;;4982979;28;20021;-76
2023/11/19 06:21:54;;;;;;;1.60;1.50;;;9.00;99.90;;;;;;4983573;28;20556;-75
2023/11/19 06:24:22;;;;;;;;;;;9.00;99.90;;;;;;4965810;28;20650;-76
2023/11/19 06:26:49;;;;;;;1.70;1.60;;;8.90;99.90;;;;;;4961196;28;19925;-77
2023/11/19 06:29:19;;;;;;;1.30;1.20;;;9.00;99.90;;;;;;4964471;28;20536;-77
2023/11/19 06:31:54;;;;;;;1.00;0.95;;;9.00;99.90;;;;;;4980682;28;20035;-77
2023/11/19 06:34:20;;;;;;;1.35;1.25;;;9.10;99.90;;;;;;4980951;28;20045;-76
2023/11/19 06:36:54;;;;;;;1.95;1.73;;;9.10;99.90;;;;;;4979200;28;20098;-76
2023/11/19 06:39:20;;;;;;;2.40;1.80;;;9.10;99.90;;;;;;4983293;28;20023;-76
2023/11/19 06:41:46;;;;;;;1.20;1.17;;;9.10;99.90;;;;;;4982077;28;20026;-77
2023/11/19 06:44:13;;;;;;;1.25;1.20;;;9.10;99.90;;;;;;4979778;28;20484;-77
2023/11/19 06:46:39;;;;;;;2.38;1.42;;;9.10;99.90;;;;;;4980353;28;20034;-77
2023/11/19 06:49:04;;;;;;;1.75;1.50;;;9.20;99.90;;;;;;4982560;28;20023;-76
2023/11/19 06:51:30;;;;;;;1.25;1.13;;;9.20;99.90;;;;;;4964797;28;20030;-76
2023/11/19 06:53:56;;;;;;;1.65;1.50;;;9.20;99.90;;;;;;4961061;28;20019;-76
2023/11/19 06:56:22;;;;;;;1.23;1.23;;;9.20;99.90;;;;;;4978939;28;20037;-76
2023/11/19 06:58:49;;;;;;;1.67;1.48;;;9.20;99.90;;;;;;4981053;28;20042;-76
2023/11/19 07:01:16;;;;;;;1.52;1.20;;;9.30;99.90;;;;;;4981039;28;20074;-76
2023/11/19 07:04:08;;;;;;;1.45;1.35;;;9.30;99.90;;;;;;4964941;28;20567;-75
2023/11/19 07:06:35;;;;;;;1.45;1.08;;;9.30;99.90;;;;;;4960490;28;20108;-76
2023/11/19 07:09:09;;;;;;;1.45;1.35;;;9.30;99.90;;;;;;4963003;28;20137;-76
2023/11/19 07:11:36;;;;;;;2.75;1.17;;;9.30;99.90;;;;;;4980418;28;20027;-75
2023/11/19 07:14:03;;;;;;;1.60;1.50;;;9.40;99.90;;;;;;4977631;28;20030;-75
2023/11/19 07:16:29;;;;;;;0.98;0.98;;;9.40;99.90;;;;;;4960334;28;20034;-76
2023/11/19 07:18:55;;;;;;;1.30;1.20;;;9.40;99.90;;;;;;4973875;28;20015;-76
2023/11/19 07:21:23;;;;;;;1.40;1.30;;;9.40;99.90;;;;;;4974802;28;20063;-76
2023/11/19 07:23:50;;;;;;;1.30;1.20;;;9.50;99.90;;;;;;4967068;28;20054;-76
2023/11/19 07:26:19;;;;;;;1.20;1.15;;;9.50;99.90;;;;;;4978595;28;20539;-76
2023/11/19 07:28:45;;;;;;;1.40;1.30;;;9.50;99.90;;;;;;4980087;28;20030;-75
2023/11/19 07:31:11;;;;;;;1.40;1.10;;;9.60;99.90;;;;;;4976236;28;20559;-76
2023/11/19 07:33:37;;;;;;;1.30;1.20;;;9.60;99.90;;;;;;4971650;28;20030;-77
2023/11/19 07:36:03;;;;;;;1.33;1.27;;;9.60;99.90;;;;;;4978651;28;20034;-76
2023/11/19 07:38:28;;;;;;;0.90;0.90;;;9.60;99.90;;;;;;4978376;28;20055;-76
2023/11/19 07:40:54;;;;;;;2.40;2.20;;;9.70;99.90;;;;;;4973820;28;20041;-76
2023/11/19 07:43:19;;;;;;;1.23;1.13;;;9.70;99.90;;;;;;4980443;28;20396;-76
2023/11/19 07:45:45;;;;;;;1.45;1.35;;;9.70;99.90;;;;;;4978153;28;20445;-76
2023/11/19 07:48:13;;;;;;;1.85;1.25;;;9.80;99.90;;;;;;4959001;28;20055;-76
2023/11/19 07:50:42;;;;;;;1.27;1.15;;;9.80;99.90;;;;;;4979550;28;20530;-76
2023/11/19 07:53:08;;;;;;;2.20;1.15;;;9.90;99.90;;;;;;4959091;28;20054;-77
2023/11/19 07:55:34;;;;;;;1.20;1.00;;;9.90;99.90;;;;;;4978081;28;20030;-75
2023/11/19 07:58:03;;;;;;;1.65;1.10;;;10.00;99.90;;;;;;4960311;28;20673;-77
2023/11/19 08:00:28;;;;;;;;;;;10.00;99.90;;;;;;4956858;28;20042;-76
2023/11/19 08:02:54;;;;;;;1.80;0.90;;;10.00;99.90;;;;;;4961341;28;19918;-76
2023/11/19 08:05:20;;;;;;;0.90;0.90;;;10.00;99.90;;;;;;4977329;28;20031;-76
2023/11/19 08:07:45;;;;;;;0.90;0.90;;;10.00;99.90;;;;;;4960409;28;20034;-76
2023/11/19 08:10:11;;;;;;;0.80;0.80;;;10.00;99.90;;;;;;4974843;28;20129;-76
2023/11/19 08:12:40;;;;;;;1.20;1.10;;;10.10;99.90;;;;;;4979531;28;20041;-76
2023/11/19 08:15:07;;;;;;;1.38;0.90;;;10.10;99.90;;;;;;4962164;28;20030;-75
2023/11/19 08:17:33;;;;;;;1.20;1.10;;;10.10;99.90;;;;;;4965469;28;20051;-76
2023/11/19 08:20:00;;;;;;;1.42;1.08;;;10.10;99.90;;;;;;4977879;28;20026;-75
2023/11/19 08:22:25;;;;;;;1.10;1.05;;;10.20;99.90;;;;;;4975535;28;20046;-77
2023/11/19 08:24:51;;;;;;;0.90;0.90;;;10.20;99.90;;;;;;4971704;28;20110;-77
2023/11/19 08:27:17;;;;;;;1.05;0.93;;;10.30;99.90;;;;;;4978792;28;20019;-76
2023/11/19 08:29:42;;;;;;;1.20;1.10;;;10.30;99.90;;;;;;4960863;28;20050;-77
2023/11/19 08:32:11;;;;;;;0.90;0.90;;;10.30;99.90;;;;;;4959821;28;20051;-77
2023/11/19 08:34:36;;;;;;;1.25;0.95;;;10.30;99.90;;;;;;4978721;28;20097;-76
2023/11/19 08:37:06;;;;;;;1.02;0.90;;;10.30;99.90;;;;;;4978396;28;20031;-76
2023/11/19 08:39:32;;;;;;;1.30;1.20;;;10.40;99.90;;;;;;4958487;28;20033;-76
2023/11/19 08:41:58;;;;;;;1.13;1.00;;;10.40;99.90;;;;;;4975327;28;20093;-76
2023/11/19 08:44:23;;;;;;;0.95;0.95;;;10.50;99.90;;;;;;4975732;28;20465;-78
2023/11/19 08:46:50;;;;;;;1.00;1.00;;;10.50;99.90;;;;;;4956577;28;20559;-77
2023/11/19 08:49:16;;;;;;;1.00;1.00;;;10.50;99.90;;;;;;4958972;28;20035;-76
2023/11/19 08:51:45;;;;;;;1.08;1.00;;;10.50;99.90;;;;;;4977288;28;20040;-77
2023/11/19 08:54:23;;;;;;;0.85;0.85;;;10.50;99.90;;;;;;4962895;28;20070;-78
2023/11/19 08:56:50;;;;;;;1.20;1.10;;;10.50;99.90;;;;;;4964574;28;20420;-74
2023/11/19 08:59:16;;;;;;;1.00;1.00;;;10.60;99.90;;;;;;4959694;28;20027;-76
2023/11/19 09:01:42;;;;;;;1.17;0.98;;;10.70;99.90;;;;;;4974000;28;20058;-76
2023/11/19 09:04:07;;;;;;;0.73;0.70;;;10.70;99.90;;;;;;4968551;28;20038;-77
2023/11/19 09:06:35;;;;;;;1.20;1.20;;;10.70;99.90;;;;;;4973583;28;20041;-76
2023/11/19 09:09:02;;;;;;;1.20;1.20;;;10.70;99.90;;;;;;4971568;28;20038;-76
2023/11/19 09:11:29;;;;;;;0.95;0.95;;;10.70;99.90;;;;;;4979572;28;20039;-75
2023/11/19 09:13:54;;;;;;;1.00;1.00;;;10.70;99.90;;;;;;4982283;28;20026;-76
2023/11/19 09:16:20;;;;;;;0.80;0.80;;;10.80;99.90;;;;;;4972818;28;20118;-76
2023/11/19 09:18:46;;;;;;;1.35;1.25;;;10.80;99.90;;;;;;4963199;28;20423;-76
2023/11/19 09:21:12;;;;;;;1.10;1.10;;;10.90;99.90;;;;;;4979035;28;20073;-76
2023/11/19 09:23:39;;;;;;;1.25;0.85;;;10.90;99.90;;;;;;4987669;28;20280;-76
2023/11/19 09:26:05;;;;;;;0.70;0.70;;;11.00;99.90;;;;;;4981649;28;20022;-76
2023/11/19 09:28:31;;;;;;;0.90;0.90;;;11.00;99.90;;;;;;4974938;28;20421;-77
2023/11/19 09:30:58;;;;;;;1.90;1.02;;;11.10;99.90;;;;;;4975801;28;20040;-75
2023/11/19 09:33:24;;;;;;;0.85;0.85;;;11.20;99.90;;;;;;4972360;28;20033;-75
2023/11/19 09:35:50;;;;;;;0.98;0.90;;;11.20;99.90;;;;;;4956695;28;20050;-75
2023/11/19 09:38:16;;;;;;;1.90;1.08;;;11.30;99.90;;;;;;4958226;28;20408;-75
2023/11/19 09:40:42;;;;;;;0.85;0.85;;;11.30;99.90;;;;;;4987952;28;20014;-76
2023/11/19 09:43:08;;;;;;;0.82;0.68;;;11.50;99.90;;;;;;4980013;28;20031;-76
2023/11/19 09:45:50;;;;;;;0.80;0.80;;;11.50;99.90;;;;;;4976859;28;20034;-76
2023/11/19 09:48:19;;;;;;;0.77;0.77;;;11.70;99.90;;;;;;4974794;28;20027;-77
2023/11/19 09:50:59;;;;;;;1.55;0.70;;;11.70;99.90;;;;;;4976119;28;20173;-75
2023/11/19 09:53:24;;;;;;;0.70;0.70;;;11.80;99.90;;;;;;4977445;28;20086;-78
2023/11/19 09:55:51;;;;;;;0.50;0.50;;;11.80;99.90;;;;;;4958945;28;20027;-76
2023/11/19 09:58:17;;;;;;;0.80;0.80;;;11.80;99.90;;;;;;4976456;28;20125;-77
2023/11/19 10:00:49;;;;;;;0.68;0.68;;;11.90;99.90;;;;;;4979302;28;20131;-77
2023/11/19 10:03:16;;;;;;;0.70;0.70;;;11.90;99.90;;;;;;4975100;28;20030;-76
2023/11/19 10:05:41;;;;;;;0.60;0.60;;;11.90;99.90;;;;;;4981789;28;20039;-78
2023/11/19 10:08:08;;;;;;;0.63;0.63;;;12.00;99.90;;;;;;4978850;28;20053;-75
2023/11/19 10:10:34;;;;;;;0.70;0.70;;;12.20;99.90;;;;;;4974268;28;20058;-76
2023/11/19 10:13:00;;;;;;;0.85;0.85;;;12.20;99.90;;;;;;4975645;28;20038;-77
2023/11/19 10:15:26;;;;;;;0.50;0.50;;;12.20;99.90;;;;;;4976477;28;20126;-77
2023/11/19 10:18:01;;;;;;;0.57;0.57;;;12.20;99.90;;;;;;4975115;28;20027;-78
2023/11/19 10:20:27;;;;;;;0.60;0.60;;;12.30;99.90;;;;;;4974966;28;20734;-76
2023/11/19 10:22:56;;;;;;;0.73;0.43;;;12.20;99.90;;;;;;4976321;28;20086;-76
2023/11/19 10:25:23;;;;;;;0.60;0.60;;;12.20;99.90;;;;;;4977798;28;20066;-76
2023/11/19 10:27:56;;;;;;;1.55;0.60;;;12.20;99.90;;;;;;4975972;28;20038;-76
2023/11/19 10:30:26;;;;;;;0.40;0.40;;;12.20;99.90;;;;;;4974419;28;20022;-77
2023/11/19 10:33:22;;;;;;;0.60;0.60;;;12.30;99.90;;;;;;4950963;28;20160;-77
2023/11/19 10:36:06;;;;;;;0.80;0.80;;;12.40;99.90;;;;;;4961261;28;20063;-77
2023/11/19 10:38:49;;;;;;;0.50;0.50;;;12.30;99.90;;;;;;4956289;28;20035;-77
2023/11/19 10:41:27;;;;;;;0.60;0.60;;;12.20;99.90;;;;;;4958656;28;20046;-75
2023/11/19 10:43:59;;;;;;;0.85;0.50;;;12.10;99.90;;;;;;4973599;28;20134;-76
2023/11/19 10:46:40;;;;;;;0.60;0.60;;;12.20;99.90;;;;;;4956537;28;20065;-76
2023/11/19 10:49:07;;;;;;;0.60;0.60;;;12.10;99.90;;;;;;4962613;28;20031;-76
2023/11/19 10:51:36;;;;;;;0.60;0.60;;;12.20;99.90;;;;;;4978288;28;20543;-76
2023/11/19 10:54:05;;;;;;;0.50;0.50;;;12.20;99.90;;;;;;4974746;28;20158;-75
2023/11/19 10:56:35;;;;;;;0.70;0.70;;;12.30;99.90;;;;;;4977301;28;20030;-75
2023/11/19 10:59:02;;;;;;;0.52;0.52;;;12.30;99.90;;;;;;4981697;28;20022;-75
2023/11/19 11:01:45;;;;;;;0.70;0.70;;;12.40;99.90;;;;;;4978962;28;20035;-75
2023/11/19 11:04:17;;;;;;;0.52;0.52;;;12.40;99.90;;;;;;4980520;28;20069;-76
2023/11/19 11:06:43;;;;;;;0.43;0.43;;;12.50;99.90;;;;;;4980427;28;20086;-76
2023/11/19 11:09:15;;;;;;;0.50;0.50;;;12.60;99.90;;;;;;4978989;28;20033;-77
2023/11/19 11:11:43;;;;;;;0.85;0.70;;;12.60;99.90;;;;;;4972887;28;20062;-76
2023/11/19 11:14:16;;;;;;;;;;;12.70;99.90;;;;;;4963523;28;20043;-76
2023/11/19 11:16:46;;;;;;;0.70;0.60;;;12.80;99.90;;;;;;4955571;28;19914;-78
2023/11/19 11:19:15;;;;;;;0.60;0.60;;;12.70;99.90;;;;;;4951769;28;20038;-76
2023/11/19 11:21:44;;;;;;;0.50;0.50;;;12.70;99.90;;;;;;4950341;28;20023;-77
2023/11/19 11:24:51;;;;;;;0.85;0.50;;;12.80;99.90;;;;;;4948996;28;20058;-76
2023/11/19 11:27:51;;;;;;;0.60;0.60;;;12.80;99.90;;;;;;4934830;28;20035;-77
2023/11/19 11:30:48;;;;;;;0.60;0.60;;;12.80;99.90;;;;;;4958065;29;20035;-76
2023/11/19 11:33:28;;;;;;;0.57;0.57;;;12.80;99.90;;;;;;4942940;29;21244;-76
2023/11/19 11:36:23;;;;;;;0.70;0.70;;;12.90;99.90;;;;;;4957053;28;20414;-76
2023/11/19 11:38:49;;;;;;;0.43;0.43;;;13.00;99.90;;;;;;4950884;28;20038;-76
2023/11/19 11:41:22;;;;;;;0.60;0.60;;;13.00;99.90;;;;;;4964077;28;20461;-75
2023/11/19 11:43:53;;;;;;;0.70;0.70;;;13.10;99.90;;;;;;4946874;28;20368;-76
2023/11/19 11:46:34;;;;;;;0.43;0.43;;;13.20;99.90;;;;;;4947288;28;20054;-76
2023/11/19 11:49:07;;;;;;;0.50;0.50;;;13.20;99.90;;;;;;4945762;28;20099;-76
2023/11/19 11:51:45;;;;;;;0.50;0.50;;;13.20;99.90;;;;;;4946741;28;20462;-77
2023/11/19 11:54:23;;;;;;;0.60;0.60;;;13.30;99.90;;;;;;4944423;28;20046;-76
2023/11/19 11:57:04;;;;;;;0.60;0.60;;;13.20;99.90;;;;;;4942981;28;20034;-76
2023/11/19 11:59:37;;;;;;;1.00;0.52;;;13.30;99.90;;;;;;4948217;28;20283;-77
2023/11/19 12:02:04;;;;;;;0.43;0.43;;;13.40;99.90;;;;;;4933157;28;20042;-76
2023/11/19 12:04:30;;;;;;;0.45;0.45;;;13.20;99.90;;;;;;4946848;28;20235;-75
2023/11/19 12:07:06;;;;;;;1.10;0.68;;;13.30;99.90;;;;;;4950783;28;20035;-79
2023/11/19 12:09:33;;;;;;;0.70;0.70;;;13.30;99.90;;;;;;4952834;28;20050;-76
2023/11/19 12:12:14;;;;;;;0.77;0.77;;;13.30;99.90;;;;;;4951802;28;20349;-75
2023/11/19 12:14:59;;;;;;;0.90;0.60;;;13.40;99.90;;;;;;4970040;28;20574;-76
2023/11/19 12:17:34;;;;;;;0.57;0.57;;;13.50;99.90;;;;;;4955527;28;20031;-77
2023/11/19 12:20:02;;;;;;;0.70;0.70;;;13.50;99.90;;;;;;4969311;28;20446;-76
2023/11/19 12:22:28;;;;;;;0.70;0.70;;;13.60;99.90;;;;;;4974039;28;21642;-76
2023/11/19 12:24:54;;;;;;;0.50;0.50;;;13.60;99.90;;;;;;4970362;28;20052;-76
2023/11/19 12:27:23;;;;;;;0.45;0.45;;;13.60;99.90;;;;;;4973724;28;20543;-76
2023/11/19 12:29:52;;;;;;;0.40;0.40;;;13.70;99.90;;;;;;4975107;28;20034;-75
2023/11/19 12:32:21;;;;;;;0.68;0.68;;;13.60;99.90;;;;;;4948287;28;20138;-76
2023/11/19 12:34:47;;;;;;;0.40;0.40;;;13.50;99.90;;;;;;4969209;28;20031;-76
2023/11/19 12:37:12;;;;;;;0.50;0.50;;;13.50;99.90;;;;;;4968505;28;20102;-75
2023/11/19 12:39:38;;;;;;;0.40;0.40;;;13.40;99.90;;;;;;4972864;28;21498;-75
2023/11/19 12:42:05;;;;;;;0.52;0.40;;;13.40;99.90;;;;;;4971962;28;20038;-75
2023/11/19 12:44:31;;;;;;;0.60;0.60;;;13.40;99.90;;;;;;4953491;28;20039;-75
2023/11/19 12:47:36;;;;;;;0.50;0.45;;;13.40;99.90;;;;;;4980350;28;20039;-75
2023/11/19 12:50:03;;;;;;;0.50;0.50;;;13.40;99.90;;;;;;4963764;28;20273;-75
2023/11/19 12:52:29;;;;;;;0.52;0.47;;;13.40;99.90;;;;;;4963891;28;20054;-76
2023/11/19 12:54:56;;;;;;;0.63;0.60;;;13.30;99.90;;;;;;4970530;28;20037;-75
2023/11/19 12:57:39;;;;;;;0.60;0.60;;;13.30;99.90;;;;;;4955263;28;20050;-76
2023/11/19 13:00:19;;;;;;;0.60;0.60;;;13.30;99.90;;;;;;4970232;28;20030;-75
2023/11/19 13:02:49;;;;;;;0.80;0.80;;;13.30;99.90;;;;;;4970343;28;20069;-76
2023/11/19 13:05:32;;;;;;;0.70;0.70;;;13.20;99.90;;;;;;4970565;28;20030;-77